createdAt,value
2022-11-09T00:00:50.288Z,3.21
2022-11-09T00:03:17.935Z,3.31
2022-11-09T00:05:55.841Z,3.06
2022-11-09T00:08:23.132Z,3.00
2022-11-09T00:10:50.592Z,3.40
2022-11-09T00:13:18.348Z,3.28
2022-11-09T00:15:45.886Z,3.16
2022-11-09T00:18:13.171Z,3.07
2022-11-09T00:20:46.079Z,2.95
2022-11-09T00:23:17.172Z,2.96
2022-11-09T00:25:44.977Z,3.13
2022-11-09T00:28:12.378Z,3.02
2022-11-09T00:30:40.385Z,2.95
2022-11-09T00:33:08.864Z,2.72
2022-11-09T00:35:38.820Z,2.99
2022-11-09T00:38:06.198Z,3.04
2022-11-09T00:40:33.560Z,3.24
2022-11-09T00:43:00.884Z,3.23
2022-11-09T00:45:28.139Z,3.22
2022-11-09T00:47:55.541Z,3.06
2022-11-09T00:50:22.935Z,3.59
2022-11-09T00:52:50.861Z,3.77
2022-11-09T00:55:21.043Z,3.50
2022-11-09T00:57:52.745Z,3.58
2022-11-09T01:00:23.708Z,3.88
2022-11-09T01:02:51.333Z,3.98
2022-11-09T01:05:19.747Z,3.85
2022-11-09T01:07:49.534Z,3.79
2022-11-09T01:10:16.912Z,3.57
2022-11-09T01:12:44.202Z,4.01
2022-11-09T01:15:11.560Z,3.96
2022-11-09T01:17:38.951Z,3.60
2022-11-09T01:20:06.874Z,3.63
2022-11-09T01:22:34.170Z,3.74
2022-11-09T01:25:01.551Z,3.68
2022-11-09T01:27:28.938Z,3.93
2022-11-09T01:29:56.226Z,3.61
2022-11-09T01:32:24.899Z,3.56
2022-11-09T01:34:52.194Z,3.65
2022-11-09T01:37:19.559Z,3.81
2022-11-09T01:39:46.919Z,4.01
2022-11-09T01:42:15.166Z,4.07
2022-11-09T01:44:43.028Z,4.03
2022-11-09T01:47:24.951Z,4.09
2022-11-09T01:49:57.024Z,4.27
2022-11-09T01:52:27.361Z,4.48
2022-11-09T01:55:02.020Z,4.19
2022-11-09T01:57:33.531Z,4.27
2022-11-09T02:00:07.490Z,4.13
2022-11-09T02:02:46.265Z,4.05
2022-11-09T02:05:18.085Z,4.10
2022-11-09T02:07:49.851Z,4.23
2022-11-09T02:10:49.419Z,4.27
2022-11-09T02:13:20.174Z,4.48
2022-11-09T02:15:49.419Z,4.41
2022-11-09T02:18:17.497Z,4.36
2022-11-09T02:20:53.921Z,4.73
2022-11-09T02:23:25.989Z,4.87
2022-11-09T02:26:07.192Z,4.78
2022-11-09T02:28:37.217Z,4.98
2022-11-09T02:31:08.310Z,4.69
2022-11-09T02:33:54.343Z,5.10
2022-11-09T02:36:23.913Z,4.99
2022-11-09T02:38:56.231Z,4.93
2022-11-09T02:41:24.734Z,5.17
2022-11-09T02:43:54.079Z,4.79
2022-11-09T02:46:32.331Z,5.14
2022-11-09T02:49:01.065Z,5.17
2022-11-09T02:51:29.017Z,5.38
2022-11-09T02:53:56.513Z,5.28
2022-11-09T02:56:24.619Z,5.28
2022-11-09T02:58:52.609Z,5.19
2022-11-09T03:01:20.191Z,5.23
2022-11-09T03:03:47.874Z,5.24
2022-11-09T03:06:15.279Z,5.14
2022-11-09T03:08:45.332Z,5.43
2022-11-09T03:11:14.241Z,5.43
2022-11-09T03:13:41.685Z,5.44
2022-11-09T03:16:09.853Z,5.46
2022-11-09T03:18:39.686Z,5.52
2022-11-09T03:21:07.479Z,5.38
2022-11-09T03:23:34.883Z,5.59
2022-11-09T03:26:03.266Z,5.58
2022-11-09T03:28:30.781Z,5.66
2022-11-09T03:30:58.487Z,5.62
2022-11-09T03:33:26.274Z,5.42
2022-11-09T03:35:53.566Z,5.52
2022-11-09T03:38:20.941Z,5.35
2022-11-09T03:40:49.343Z,5.63
2022-11-09T03:43:17.610Z,5.74
2022-11-09T03:45:46.831Z,5.88
2022-11-09T03:48:14.251Z,5.62
2022-11-09T03:50:41.598Z,5.64
2022-11-09T03:53:10.769Z,5.73
2022-11-09T03:55:38.902Z,5.49
2022-11-09T03:58:07.542Z,5.71
2022-11-09T04:00:36.175Z,5.62
2022-11-09T04:03:03.483Z,5.84
2022-11-09T04:05:30.778Z,5.58
2022-11-09T04:07:58.495Z,5.72
2022-11-09T04:10:26.574Z,5.81
2022-11-09T04:12:54.269Z,5.60
2022-11-09T04:15:21.968Z,5.63
2022-11-09T04:18:01.014Z,5.76
2022-11-09T04:20:30.381Z,5.83
2022-11-09T04:23:00.686Z,5.72
2022-11-09T04:25:29.198Z,5.79
2022-11-09T04:27:58.199Z,5.84
2022-11-09T04:30:29.791Z,5.79
2022-11-09T04:32:58.251Z,5.58
2022-11-09T04:35:27.262Z,5.60
2022-11-09T04:37:56.116Z,5.57
2022-11-09T04:40:24.499Z,5.64
2022-11-09T04:42:52.115Z,5.86
2022-11-09T04:45:20.558Z,5.76
2022-11-09T04:47:48.617Z,5.62
2022-11-09T04:50:16.305Z,5.71
2022-11-09T04:52:43.567Z,5.79
2022-11-09T04:55:10.891Z,5.79
2022-11-09T04:57:38.151Z,5.66
2022-11-09T05:00:05.849Z,5.65
2022-11-09T05:02:33.279Z,5.57
2022-11-09T05:05:00.582Z,5.52
2022-11-09T05:07:27.889Z,5.76
2022-11-09T05:09:55.185Z,5.50
2022-11-09T05:12:22.472Z,5.81
2022-11-09T05:14:49.808Z,5.77
2022-11-09T05:17:17.141Z,5.64
2022-11-09T05:19:44.426Z,5.36
2022-11-09T05:22:30.421Z,5.29
2022-11-09T05:24:57.742Z,5.64
2022-11-09T05:27:25.029Z,5.80
2022-11-09T05:29:52.467Z,5.65
2022-11-09T05:32:19.790Z,5.44
2022-11-09T05:34:47.131Z,5.60
2022-11-09T05:37:14.470Z,5.65
2022-11-09T05:39:41.831Z,5.72
2022-11-09T05:42:10.306Z,5.67
2022-11-09T05:44:37.699Z,5.58
2022-11-09T05:47:05.139Z,5.71
2022-11-09T05:49:32.578Z,5.86
2022-11-09T05:51:59.872Z,5.77
2022-11-09T05:54:27.171Z,5.70
2022-11-09T05:56:54.512Z,5.83
2022-11-09T05:59:21.876Z,5.61
2022-11-09T06:01:49.350Z,5.73
2022-11-09T06:04:16.726Z,5.99
2022-11-09T06:06:44.426Z,5.86
2022-11-09T06:09:11.789Z,5.64
2022-11-09T06:11:39.231Z,5.91
2022-11-09T06:14:06.563Z,6.06
2022-11-09T06:16:33.921Z,6.15
2022-11-09T06:19:02.084Z,5.99
2022-11-09T06:21:29.480Z,6.29
2022-11-09T06:23:56.755Z,6.34
2022-11-09T06:26:24.033Z,6.17
2022-11-09T06:28:51.419Z,5.99
2022-11-09T06:31:20.610Z,6.09
2022-11-09T06:33:48.053Z,6.02
2022-11-09T06:36:15.417Z,6.66
2022-11-09T06:38:42.961Z,6.78
2022-11-09T06:41:10.840Z,6.90
2022-11-09T06:43:38.251Z,6.64
2022-11-09T06:46:06.312Z,7.04
2022-11-09T06:48:33.809Z,6.57
2022-11-09T06:51:02.112Z,6.48
2022-11-09T06:53:30.790Z,6.21
2022-11-09T06:55:59.792Z,6.28
2022-11-09T06:58:27.635Z,6.48
2022-11-09T07:00:55.711Z,6.51
2022-11-09T07:03:24.121Z,6.16
2022-11-09T07:05:53.245Z,6.37
2022-11-09T07:08:20.913Z,6.29
2022-11-09T07:10:48.619Z,6.40
2022-11-09T07:13:15.943Z,6.29
2022-11-09T07:15:43.392Z,6.11
2022-11-09T07:18:12.809Z,6.14
2022-11-09T07:20:40.315Z,6.39
2022-11-09T07:23:07.620Z,6.36
2022-11-09T07:25:36.019Z,6.59
2022-11-09T07:28:08.942Z,6.63
2022-11-09T07:30:37.105Z,7.02
2022-11-09T07:33:11.351Z,6.70
2022-11-09T07:35:38.708Z,6.62
2022-11-09T07:38:06.498Z,7.31
2022-11-09T07:40:34.810Z,7.57
2022-11-09T07:43:04.104Z,7.65
2022-11-09T07:45:33.703Z,7.63
2022-11-09T07:48:04.082Z,7.10
2022-11-09T07:50:32.702Z,7.15
2022-11-09T07:53:01.198Z,7.39
2022-11-09T07:55:29.980Z,7.70
2022-11-09T07:58:03.522Z,7.37
2022-11-09T08:00:32.465Z,7.88
2022-11-09T08:02:59.931Z,8.04
2022-11-09T08:05:27.895Z,8.21
2022-11-09T08:08:00.592Z,7.76
2022-11-09T08:10:29.523Z,8.10
2022-11-09T08:13:02.443Z,8.06
2022-11-09T08:15:30.454Z,8.18
2022-11-09T08:18:19.140Z,8.25
2022-11-09T08:20:47.164Z,8.27
2022-11-09T08:23:17.038Z,8.01
2022-11-09T08:25:44.769Z,7.71
2022-11-09T08:28:15.840Z,7.72
2022-11-09T08:30:44.707Z,7.85
2022-11-09T08:33:12.751Z,8.13
2022-11-09T08:35:40.211Z,8.41
2022-11-09T08:38:07.526Z,7.79
2022-11-09T08:40:35.114Z,7.77
2022-11-09T08:43:05.271Z,8.18
2022-11-09T08:45:35.391Z,8.33
2022-11-09T08:48:03.910Z,8.34
2022-11-09T08:50:32.505Z,8.62
2022-11-09T08:53:01.357Z,8.24
2022-11-09T08:55:29.107Z,8.92
2022-11-09T08:57:58.512Z,8.47
2022-11-09T09:00:26.321Z,8.39
2022-11-09T09:02:53.964Z,8.24
2022-11-09T09:05:22.120Z,8.27
2022-11-09T09:07:49.647Z,8.35
2022-11-09T09:10:17.102Z,8.79
2022-11-09T09:12:44.513Z,9.04
2022-11-09T09:15:12.023Z,9.20
2022-11-09T09:17:39.258Z,8.40
2022-11-09T09:20:07.079Z,8.72
2022-11-09T09:22:34.973Z,8.03
2022-11-09T09:25:02.865Z,8.16
2022-11-09T09:27:30.694Z,8.03
2022-11-09T09:29:58.543Z,8.28
2022-11-09T09:32:26.296Z,8.22
2022-11-09T09:34:53.570Z,8.92
2022-11-09T09:37:21.756Z,9.50
2022-11-09T09:39:50.939Z,9.21
2022-11-09T09:42:22.675Z,8.76
2022-11-09T09:44:56.953Z,8.81
2022-11-09T09:47:29.146Z,9.19
2022-11-09T09:50:03.921Z,8.91
2022-11-09T09:53:17.605Z,8.82
2022-11-09T09:55:44.705Z,8.47
2022-11-09T09:58:46.154Z,8.76
2022-11-09T10:01:23.995Z,8.81
2022-11-09T10:03:51.518Z,8.88
2022-11-09T10:06:40.699Z,8.90
2022-11-09T10:09:42.139Z,9.25
2022-11-09T10:12:21.597Z,9.44
2022-11-09T10:15:14.065Z,9.31
2022-11-09T10:18:01.795Z,9.23
2022-11-09T10:20:37.154Z,9.91
2022-11-09T10:23:19.635Z,10.08
2022-11-09T10:26:14.489Z,9.77
2022-11-09T10:29:13.856Z,9.34
2022-11-09T10:31:33.993Z,9.60
2022-11-09T10:34:26.647Z,9.31
2022-11-09T10:37:01.752Z,9.23
2022-11-09T10:39:42.363Z,9.47
2022-11-09T10:42:27.894Z,9.77
2022-11-09T10:45:25.415Z,9.88
2022-11-09T10:48:13.213Z,9.90
2022-11-09T10:50:59.233Z,9.74
2022-11-09T10:53:45.112Z,9.60
2022-11-09T10:59:57.904Z,10.28
2022-11-09T11:02:46.325Z,9.97
2022-11-09T11:05:33.747Z,10.03
2022-11-09T11:08:26.312Z,10.33
2022-11-09T11:11:36.155Z,10.33
2022-11-09T11:14:29.122Z,10.44
2022-11-09T11:17:25.419Z,10.39
2022-11-09T11:20:35.429Z,10.10
2022-11-09T11:23:25.396Z,10.08
2022-11-09T11:26:23.650Z,10.24
2022-11-09T11:29:22.011Z,10.50
2022-11-09T11:32:15.452Z,10.91
2022-11-09T11:35:02.300Z,11.30
2022-11-09T11:38:03.248Z,11.23
2022-11-09T11:41:20.709Z,11.26
2022-11-09T11:44:24.786Z,11.68
2022-11-09T11:47:16.422Z,11.26
2022-11-09T11:50:20.694Z,10.31
2022-11-09T11:53:22.294Z,10.67
2022-11-09T11:56:17.839Z,10.76
2022-11-09T11:59:38.412Z,11.14
2022-11-09T12:02:43.323Z,11.28
2022-11-09T12:05:47.432Z,11.51
2022-11-09T12:09:07.330Z,11.18
2022-11-09T12:12:00.386Z,11.08
2022-11-09T12:14:46.558Z,11.38
2022-11-09T12:17:43.151Z,11.43
2022-11-09T12:20:55.520Z,11.41
2022-11-09T12:24:02.924Z,11.52
2022-11-09T12:27:30.994Z,11.67
2022-11-09T12:30:19.229Z,11.93
2022-11-09T12:33:13.259Z,12.06
2022-11-09T12:36:08.284Z,12.04
2022-11-09T12:39:11.839Z,12.07
2022-11-09T12:42:04.362Z,12.08
2022-11-09T12:45:13.559Z,12.13
2022-11-09T12:48:05.131Z,12.28
2022-11-09T12:50:52.704Z,12.47
2022-11-09T12:53:39.387Z,12.60
2022-11-09T12:56:31.267Z,12.58
2022-11-09T12:59:22.390Z,12.36
2022-11-09T13:02:28.979Z,12.21
2022-11-09T13:05:33.466Z,12.73
2022-11-09T13:08:31.772Z,12.63
2022-11-09T13:11:42.550Z,12.61
2022-11-09T13:14:37.987Z,12.57
2022-11-09T13:17:24.585Z,12.37
2022-11-09T13:24:00.132Z,12.11
2022-11-09T13:26:46.733Z,12.05
2022-11-09T13:29:38.931Z,11.89
2022-11-09T13:32:26.765Z,11.91
2022-11-09T13:35:38.495Z,11.84
2022-11-09T13:38:28.362Z,11.77
2022-11-09T13:41:29.730Z,11.76
2022-11-09T13:44:27.748Z,11.69
2022-11-09T13:47:27.865Z,11.57
2022-11-09T13:50:26.289Z,11.67
2022-11-09T13:53:29.159Z,11.72
2022-11-09T13:56:27.296Z,11.63
2022-11-09T13:59:13.478Z,11.68
2022-11-09T14:02:01.211Z,11.69
2022-11-09T14:04:47.317Z,11.54
2022-11-09T14:07:35.313Z,11.43
2022-11-09T14:10:51.382Z,11.67
2022-11-09T14:13:39.942Z,11.59
2022-11-09T14:16:35.050Z,11.60
2022-11-09T14:20:12.021Z,11.52
2022-11-09T14:22:58.038Z,11.46
2022-11-09T14:25:45.530Z,11.43
2022-11-09T14:28:32.842Z,11.31
2022-11-09T14:31:28.134Z,11.22
2022-11-09T14:34:16.572Z,11.15
2022-11-09T14:37:06.059Z,11.21
2022-11-09T14:39:54.199Z,11.17
2022-11-09T14:42:45.873Z,11.02
2022-11-09T14:45:32.169Z,11.05
2022-11-09T14:48:20.709Z,11.03
2022-11-09T14:51:12.134Z,10.87
2022-11-09T14:54:00.575Z,10.83
2022-11-09T14:56:46.791Z,10.75
2022-11-09T14:59:34.703Z,10.62
2022-11-09T15:02:22.218Z,10.49
2022-11-09T15:05:27.653Z,10.37
2022-11-09T15:08:21.488Z,10.25
2022-11-09T15:11:08.070Z,10.20
2022-11-09T15:13:54.229Z,10.09
2022-11-09T15:16:40.455Z,9.94
2022-11-09T15:19:37.137Z,9.92
2022-11-09T15:22:45.163Z,9.87
2022-11-09T15:25:41.714Z,9.72
2022-11-09T15:28:29.256Z,9.69
2022-11-09T15:31:17.133Z,9.64
2022-11-09T15:34:18.624Z,9.30
2022-11-09T15:37:18.484Z,9.39
2022-11-09T15:40:13.746Z,9.18
2022-11-09T15:42:59.214Z,9.04
2022-11-09T15:45:45.139Z,9.05
2022-11-09T15:48:31.801Z,8.98
2022-11-09T15:51:18.125Z,8.81
2022-11-09T15:54:04.239Z,8.53
2022-11-09T15:56:51.346Z,8.63
2022-11-09T15:59:37.233Z,8.62
2022-11-09T16:02:23.275Z,8.70
2022-11-09T16:05:09.608Z,8.89
2022-11-09T16:07:55.726Z,8.90
2022-11-09T16:10:43.473Z,8.94
2022-11-09T16:13:29.515Z,8.70
2022-11-09T16:16:16.231Z,8.93
2022-11-09T16:19:02.235Z,8.92
2022-11-09T16:21:48.134Z,8.91
2022-11-09T16:24:34.160Z,8.94
2022-11-09T16:27:43.335Z,8.96
2022-11-09T16:30:25.634Z,8.94
2022-11-09T16:33:11.517Z,8.72
2022-11-09T16:36:00.678Z,8.62
2022-11-09T16:38:51.795Z,8.56
2022-11-09T16:41:41.933Z,8.49
2022-11-09T16:44:34.209Z,8.54
2022-11-09T16:47:25.903Z,8.41
2022-11-09T16:50:11.754Z,8.33
2022-11-09T16:52:57.722Z,8.31
2022-11-09T16:55:43.633Z,8.36
2022-11-09T16:58:29.458Z,8.50
2022-11-09T17:01:17.736Z,8.72
2022-11-09T17:04:08.511Z,8.89
2022-11-09T17:06:54.703Z,9.12
2022-11-09T17:09:40.607Z,9.01
2022-11-09T17:12:26.671Z,9.00
2022-11-09T17:15:12.710Z,9.07
2022-11-09T17:17:58.843Z,9.10
2022-11-09T17:20:50.348Z,9.34
2022-11-09T17:23:36.578Z,9.11
2022-11-09T17:26:23.384Z,9.17
2022-11-09T17:29:09.003Z,9.19
2022-11-09T17:31:55.006Z,9.28
2022-11-09T17:34:40.777Z,9.52
2022-11-09T17:37:26.840Z,9.59
2022-11-09T17:40:12.837Z,9.77
2022-11-09T17:42:59.668Z,9.86
2022-11-09T17:45:45.383Z,9.92
2022-11-09T17:48:32.952Z,10.02
2022-11-09T17:51:19.930Z,10.01
2022-11-09T17:54:06.223Z,9.96
2022-11-09T17:56:52.196Z,10.10
2022-11-09T17:59:40.805Z,10.00
2022-11-09T18:02:26.678Z,10.31
2022-11-09T18:05:13.998Z,10.37
2022-11-09T18:07:59.839Z,10.52
2022-11-09T18:10:49.593Z,10.43
2022-11-09T18:13:35.516Z,10.42
2022-11-09T18:16:21.051Z,10.53
2022-11-09T18:19:07.302Z,10.40
2022-11-09T18:21:53.492Z,10.49
2022-11-09T18:24:39.523Z,10.46
2022-11-09T18:27:30.067Z,10.41
2022-11-09T18:30:17.188Z,10.46
2022-11-09T18:33:02.729Z,10.48
2022-11-09T18:35:57.124Z,10.44
2022-11-09T18:38:44.097Z,10.58
2022-11-09T18:41:30.393Z,10.59
2022-11-09T18:44:17.234Z,10.64
2022-11-09T18:47:05.579Z,10.74
2022-11-09T18:49:52.731Z,10.82
2022-11-09T18:52:38.822Z,10.83
2022-11-09T18:55:24.643Z,10.79
2022-11-09T18:58:10.511Z,10.86
2022-11-09T19:01:01.399Z,10.76
2022-11-09T19:03:47.257Z,10.70
2022-11-09T19:06:35.086Z,10.82
2022-11-09T19:09:31.506Z,10.73
2022-11-09T19:12:17.515Z,10.69
2022-11-09T19:15:03.422Z,10.90
2022-11-09T19:17:51.395Z,10.80
2022-11-09T19:20:40.662Z,10.61
2022-11-09T19:23:32.824Z,10.70
2022-11-09T19:26:21.927Z,10.75
2022-11-09T19:29:08.835Z,10.80
2022-11-09T19:31:55.162Z,10.77
2022-11-09T19:34:42.854Z,10.74
2022-11-09T19:37:28.901Z,10.72
2022-11-09T19:40:15.176Z,10.83
2022-11-09T19:43:03.843Z,10.80
2022-11-09T19:45:49.589Z,10.72
2022-11-09T19:48:35.745Z,10.82
2022-11-09T19:51:21.757Z,10.83
2022-11-09T19:54:08.042Z,10.83
2022-11-09T19:56:53.700Z,10.79
2022-11-09T19:59:39.787Z,10.76
2022-11-09T20:02:25.761Z,10.79
2022-11-09T20:05:11.889Z,10.75
2022-11-09T20:07:57.738Z,10.75
2022-11-09T20:10:43.638Z,10.76
2022-11-09T20:13:29.600Z,10.77
2022-11-09T20:16:15.716Z,10.76
2022-11-09T20:19:03.074Z,10.84
2022-11-09T20:21:49.676Z,10.57
2022-11-09T20:24:35.479Z,10.79
2022-11-09T20:27:21.378Z,10.72
2022-11-09T20:30:07.712Z,10.74
2022-11-09T20:32:53.866Z,10.78
2022-11-09T20:35:42.969Z,10.77
2022-11-09T20:38:32.897Z,10.80
2022-11-09T20:41:22.930Z,10.74
2022-11-09T20:44:10.768Z,10.64
2022-11-09T20:46:56.658Z,10.63
2022-11-09T20:49:42.536Z,10.55
2022-11-09T20:52:28.562Z,10.55
2022-11-09T20:55:15.031Z,10.50
2022-11-09T20:58:00.452Z,10.53
2022-11-09T21:00:46.391Z,10.50
2022-11-09T21:03:33.332Z,10.38
2022-11-09T21:06:21.224Z,10.39
2022-11-09T21:09:07.567Z,10.38
2022-11-09T21:12:13.647Z,10.34
2022-11-09T21:14:59.531Z,10.20
2022-11-09T21:17:46.558Z,10.38
2022-11-09T21:20:33.078Z,10.39
2022-11-09T21:23:19.292Z,10.40
2022-11-09T21:26:23.500Z,10.45
2022-11-09T21:29:29.846Z,10.46
2022-11-09T21:32:15.852Z,10.58
2022-11-09T21:35:02.198Z,10.65
2022-11-09T21:37:47.788Z,10.65
2022-11-09T21:40:33.508Z,10.65
2022-11-09T21:43:19.648Z,10.60
2022-11-09T21:46:06.659Z,10.61
2022-11-09T21:48:53.016Z,10.66
2022-11-09T21:51:44.944Z,10.71
2022-11-09T21:54:30.723Z,10.59
2022-11-09T21:57:18.129Z,10.52
2022-11-09T22:00:07.223Z,10.60
2022-11-09T22:05:52.547Z,10.96
2022-11-09T22:08:43.857Z,10.99
2022-11-09T22:11:51.242Z,10.94
2022-11-09T22:14:58.508Z,10.98
2022-11-09T22:17:45.442Z,10.87
2022-11-09T22:20:49.706Z,10.75
2022-11-09T22:23:35.962Z,10.82
2022-11-09T22:26:21.914Z,10.76
2022-11-09T22:29:07.920Z,10.85
2022-11-09T22:31:53.990Z,10.86
2022-11-09T22:34:39.720Z,10.68
2022-11-09T22:37:25.642Z,10.62
2022-11-09T22:40:11.898Z,10.59
2022-11-09T22:42:58.224Z,10.56
2022-11-09T22:45:44.092Z,10.49
2022-11-09T22:48:34.462Z,10.62
2022-11-09T22:51:20.620Z,10.64
2022-11-09T22:54:06.566Z,10.50
2022-11-09T22:56:52.740Z,10.47
2022-11-09T22:59:38.823Z,10.44
2022-11-09T23:02:24.737Z,10.39
2022-11-09T23:05:10.456Z,10.41
2022-11-09T23:07:56.682Z,10.38
2022-11-09T23:10:43.044Z,10.39
2022-11-09T23:13:29.731Z,10.27
2022-11-09T23:16:15.871Z,10.28
2022-11-09T23:19:01.527Z,10.23
2022-11-09T23:21:47.545Z,10.31
2022-11-09T23:24:51.987Z,10.23
2022-11-09T23:27:37.994Z,10.20
2022-11-09T23:30:23.916Z,10.22
2022-11-09T23:33:10.519Z,10.20
2022-11-09T23:35:57.357Z,10.33
2022-11-09T23:38:43.590Z,10.27
2022-11-09T23:41:29.744Z,10.29
2022-11-09T23:44:15.314Z,10.23
2022-11-09T23:47:01.725Z,10.22
2022-11-09T23:49:47.635Z,10.13
2022-11-09T23:52:34.040Z,10.23
2022-11-09T23:55:19.706Z,10.10
2022-11-09T23:58:06.895Z,10.10
